Thursday, August 16, 2018, 1:55 AM EDT
Back to Local

KPQI, Presque Isle

Location: Presque Isle, ME, United States Lat: 46.683
Local Time: 1:55 AM EDT ( 5:55 GMT) Lon: -68.05
Time Zone: US/Eastern Elev: 534 ft

Show me the last for .
Show Decoded

2018-08-16 00:56 METAR KPQI 160456Z AUTO 00000KT 10SM CLR 15/14 A2987 RMK AO2 SLP151 T01500139
                 402720150 =
2018-08-15 23:56 METAR KPQI 160356Z AUTO 28003KT 10SM BKN036 OVC070 17/14 A2987 RMK AO2 SLP149
                 T01720144 =
2018-08-15 22:56 METAR KPQI 160256Z AUTO 36005KT 10SM OVC032 18/14 A2986 RMK AO2 SLP146 T01780144
                 51020 =
2018-08-15 20:56 METAR KPQI 160056Z AUTO 35005KT 10SM BKN110 18/17 A2983 RMK AO2 SLP139 T01780172
                 =
2018-08-15 19:56 METAR KPQI 152356Z AUTO 00000KT 10SM CLR 18/17 A2980 RMK AO2 SLP126 60034
                 T01830172 10272 20183 50002 =
2018-08-15 18:56 METAR KPQI 152256Z AUTO 20003KT 10SM FEW039 19/18 A2981 RMK AO2 LTG DSNT NW
                 RAB2158E10 SLP129 P0000 T01890178 =
2018-08-15 17:56 METAR KPQI 152156Z AUTO 22004KT 10SM BKN085 18/18 A2980 RMK AO2 LTG DSNT N AND
                 NW RAB46E56 SLP128 P0000 T01830178 =
2018-08-15 16:56 METAR KPQI 152056Z AUTO 18005KT 10SM CLR 19/18 A2979 RMK AO2 LTG DSNT ALQDS
                 TSE1958B00E43RAE42 SLP124 P0012 60034 T01890178 51023 =
2018-08-15 16:49 METAR KPQI 152049Z AUTO 19005KT 10SM FEW075 19/18 A2979 RMK AO2 LTG DSNT ALQDS
                 TSE1958B00E43RAE42 P0012 =
2018-08-15 16:20 METAR KPQI 152020Z AUTO 11008KT 9SM -TSRA FEW008 BKN060 OVC080 19/18 A2979 RMK
                 AO2 LTG DSNT ALQDS TSE1958B00 P0011 =
2018-08-15 16:00 METAR KPQI 152000Z AUTO 26009G16KT 6SM +TSRA BR SCT027 OVC037 19/18 A2979 RMK
                 AO2 LTG DSNT ALQDS TSE1958B00 PRESRR P0008 =
2018-08-15 15:56 METAR KPQI 151956Z AUTO 26010G16KT 5SM +TSRA BR SCT028 BKN039 OVC050 19/18 A2978
                 RMK AO2 PK WND 28030/1939 WSHFT 1933 LTG DSNT ALQDS TSB08RAB38 SLP122 P0022
                 T01890178 =
2018-08-15 15:53 METAR KPQI 151953Z AUTO 23013KT 5SM +TSRA BR FEW025 BKN039 OVC085 19/18 A2977
                 RMK AO2 PK WND 28030/1939 WSHFT 1933 LTG DSNT ALQDS TSB08RAB38 P0018 =
2018-08-15 15:14 METAR KPQI 151914Z AUTO 15009KT 10SM VCTS FEW029 BKN043 BKN070 25/21 A2974 RMK
                 AO2 LTG DSNT ALQDS TSB08 =
2018-08-15 14:56 METAR KPQI 151856Z AUTO 17008KT 7SM FEW027 SCT065 26/21 A2972 RMK AO2 LTG DSNT
                 W-NE SLP098 T02560211 =
2018-08-15 14:41 METAR KPQI 151841Z AUTO 17008KT 7SM FEW028 SCT032 BKN060 27/22 A2973 RMK AO2 LTG
                 DSNT ALQDS =
2018-08-15 14:08 METAR KPQI 151808Z AUTO 15007KT 6SM HZ BKN027 26/22 A2975 RMK AO2 LTG DSNT ALQDS
                 =
2018-08-15 13:56 METAR KPQI 151756Z AUTO 00000KT 9SM FEW029 SCT065 27/21 A2976 RMK AO2 LTG DSNT N
                 AND SE AND S SLP110 60000 T02670206 10272 20217 55010 =
2018-08-15 13:28 METAR KPQI 151728Z AUTO 20005KT 10SM SCT023 BKN070 26/21 A2977 RMK AO2 LTG DSNT
                 SE AND S =
2018-08-15 12:56 METAR KPQI 151656Z AUTO 26007KT 10SM OVC021 26/21 A2976 RMK AO2 LTG DSNT SE-SW
                 SLP109 T02560206 =
2018-08-15 12:39 METAR KPQI 151639Z AUTO 20007KT 10SM BKN021 26/21 A2976 RMK AO2 LTG DSNT SE AND
                 S =
2018-08-15 12:30 METAR KPQI 151630Z AUTO 22005KT 10SM SCT021 BKN070 25/21 A2977 RMK AO2 LTG DSNT
                 E-S =
2018-08-15 12:21 METAR KPQI 151621Z AUTO 21006KT 10SM BKN021 BKN070 OVC110 25/21 A2977 RMK AO2
                 LTG DSNT E-S =
2018-08-15 12:04 METAR KPQI 151604Z AUTO 21007KT 10SM SCT018 BKN070 OVC110 25/21 A2978 RMK AO2
                 LTG DSNT E-S =
2018-08-15 11:56 METAR KPQI 151556Z AUTO 22006KT 10SM BKN018 BKN070 OVC110 24/21 A2978 RMK AO2
                 LTG DSNT E-S RAE16 SLP115 P0000 T02440206 =
2018-08-15 10:56 METAR KPQI 151456Z AUTO 21006KT 10SM -RA FEW018 BKN055 OVC075 23/21 A2979 RMK
                 AO2 LTG DSNT NE RAB42 SLP120 P0000 60000 T02330206 56002 =
2018-08-15 09:56 METAR KPQI 151356Z AUTO 22007KT 10SM FEW017 OVC070 23/20 A2979 RMK AO2 SLP121
                 T02330200 =
2018-08-15 08:56 METAR KPQI 151256Z AUTO 21006KT 10SM FEW016 OVC055 22/19 A2979 RMK AO2 SLP120
                 T02220194 =
2018-08-15 08:43 METAR KPQI 151243Z AUTO 21005KT 10SM SCT014 OVC055 22/19 A2979 RMK AO2 =
2018-08-15 08:26 METAR KPQI 151226Z AUTO 21007KT 10SM BKN014 OVC050 22/19 A2979 RMK AO2 =
2018-08-15 08:14 METAR KPQI 151214Z AUTO 20007KT 10SM FEW018 SCT023 OVC050 22/19 A2979 RMK AO2 =
2018-08-15 07:56 METAR KPQI 151156Z AUTO 18006KT 10SM BKN019 OVC024 22/20 A2979 RMK AO2 SLP122
                 60000 7//// T02220200 10222 20200 52003 =
2018-08-15 07:37 METAR KPQI 151137Z AUTO 18006KT 10SM BKN019 BKN034 OVC070 22/19 A2979 RMK AO2 =
2018-08-15 07:26 METAR KPQI 151126Z AUTO 18005KT 10SM SCT019 BKN050 OVC070 22/20 A2979 RMK AO2 =
2018-08-15 07:06 METAR KPQI 151106Z AUTO 18003KT 10SM FEW011 BKN019 OVC030 21/19 A2979 RMK AO2 =
2018-08-15 06:56 METAR KPQI 151056Z AUTO 00000KT 10SM SCT019 BKN031 21/19 A2979 RMK AO2 SLP121
                 T02110194 =
2018-08-15 06:32 METAR KPQI 151032Z AUTO 00000KT 10SM BKN019 21/19 A2979 RMK AO2 =
2018-08-15 06:07 METAR KPQI 151007Z AUTO 18005KT 10SM FEW028 20/19 A2978 RMK AO2 =
2018-08-15 05:56 METAR KPQI 150956Z AUTO 19005KT 10SM FEW017 BKN028 21/19 A2978 RMK AO2 SLP119
                 T02060194 =
2018-08-15 04:56 METAR KPQI 150856Z AUTO 19005KT 10SM BKN017 BKN036 OVC070 21/19 A2978 RMK AO2
                 SLP117 60000 T02110194 56005 =
2018-08-15 03:56 METAR KPQI 150756Z AUTO 20005KT 10SM FEW013 BKN021 OVC026 21/19 A2978 RMK AO2
                 RAB34E47 SLP118 P0000 T02110194 =
2018-08-15 03:44 METAR KPQI 150744Z AUTO 19006KT 10SM -RA SCT013 OVC024 21/19 A2978 RMK AO2 RAB34
                 P0000 =
2018-08-15 03:35 METAR KPQI 150735Z AUTO 19006KT 10SM -RA BKN013 OVC024 21/19 A2979 RMK AO2 RAB34
                 P0000 =
2018-08-15 03:22 METAR KPQI 150722Z AUTO 19007KT 10SM FEW013 BKN024 OVC034 21/19 A2979 RMK AO2 =
2018-08-15 02:56 METAR KPQI 150656Z AUTO 18005KT 10SM FEW012 OVC038 21/19 A2979 RMK AO2 SLP119
                 T02110194 =
2018-08-15 02:38 METAR KPQI 150638Z AUTO 17005KT 10SM SCT012 BKN038 OVC060 21/19 A2979 RMK AO2 =
2018-08-15 01:56 METAR KPQI 150556Z AUTO 18005KT 10SM BKN014 BKN110 21/19 A2980 RMK AO2 SLP123
                 60000 T02110194 10233 20211 58007 =

Support USWX by starting your Amazon purchase here.